createdAt,value
2023-02-21T00:00:00.051Z, 45
2023-02-21T00:02:00.137Z, 45
2023-02-21T00:04:00.077Z, 45
2023-02-21T00:06:00.107Z, 45
2023-02-21T00:08:00.062Z, 45
2023-02-21T00:10:00.117Z, 45
2023-02-21T00:12:00.042Z, 45
2023-02-21T00:14:00.103Z, 45
2023-02-21T00:16:00.117Z, 45
2023-02-21T00:18:00.104Z, 45
2023-02-21T00:20:00.148Z, 90
2023-02-21T00:22:00.100Z, 90
2023-02-21T00:24:00.125Z, 90
2023-02-21T00:26:00.149Z, 90
2023-02-21T00:28:00.134Z, 90
2023-02-21T00:30:00.127Z, 90
2023-02-21T00:32:00.222Z, 90
2023-02-21T00:34:00.418Z, 90
2023-02-21T00:36:00.188Z, 90
2023-02-21T00:38:00.143Z, 90
2023-02-21T00:40:00.475Z, 90
2023-02-21T00:42:00.132Z, 90
2023-02-21T00:44:00.049Z, 90
2023-02-21T00:46:00.646Z, 90
2023-02-21T00:48:00.044Z, 90
2023-02-21T00:50:00.029Z, 90
2023-02-21T00:52:00.062Z, 90
2023-02-21T00:54:00.060Z, 90
2023-02-21T00:56:00.091Z, 135
2023-02-21T00:58:00.055Z, 180
2023-02-21T01:00:00.053Z, 180
2023-02-21T01:02:00.037Z, 180
2023-02-21T01:04:00.092Z, 180
2023-02-21T01:06:00.045Z, 180
2023-02-21T01:08:00.118Z, 180
2023-02-21T01:10:00.053Z, 45
2023-02-21T01:12:00.066Z, 45
2023-02-21T01:14:00.143Z, 45
2023-02-21T01:16:00.169Z, 45
2023-02-21T01:18:00.102Z, 45
2023-02-21T01:20:00.114Z, 45
2023-02-21T01:22:00.119Z, 45
2023-02-21T01:24:00.110Z, 45
2023-02-21T01:26:00.107Z, 45
2023-02-21T01:28:00.153Z, 45
2023-02-21T01:30:00.140Z, 45
2023-02-21T01:32:00.181Z, 45
2023-02-21T01:34:00.135Z, 45
2023-02-21T01:36:00.126Z, 45
2023-02-21T01:38:00.130Z, 45
2023-02-21T01:40:00.160Z, 45
2023-02-21T01:42:00.193Z, 45
2023-02-21T01:44:00.083Z, 45
2023-02-21T01:46:00.152Z, 45
2023-02-21T01:48:00.071Z, 45
2023-02-21T01:50:00.049Z, 45
2023-02-21T01:52:00.055Z, 45
2023-02-21T01:54:00.049Z, 45
2023-02-21T01:56:00.048Z, 45
2023-02-21T01:58:00.055Z, 45
2023-02-21T02:00:00.098Z, 45
2023-02-21T02:02:00.052Z, 45
2023-02-21T02:04:00.042Z, 45
2023-02-21T02:06:00.040Z, 45
2023-02-21T02:08:00.241Z, 45
2023-02-21T02:10:00.055Z, 45
2023-02-21T02:12:00.137Z, 45
2023-02-21T02:14:00.109Z, 45
2023-02-21T02:16:00.260Z, 45
2023-02-21T02:18:00.105Z, 45
2023-02-21T02:20:00.124Z, 45
2023-02-21T02:22:00.111Z, 45
2023-02-21T02:24:00.107Z, 45
2023-02-21T02:26:00.123Z, 45
2023-02-21T02:28:00.141Z, 45
2023-02-21T02:30:00.148Z, 45
2023-02-21T02:32:00.303Z, 45
2023-02-21T02:34:00.125Z, 45
2023-02-21T02:36:00.134Z, 45
2023-02-21T02:38:00.122Z, 45
2023-02-21T02:40:00.149Z, 315
2023-02-21T02:42:00.106Z, 315
2023-02-21T02:44:00.108Z, 315
2023-02-21T02:46:00.151Z, 315
2023-02-21T02:48:00.106Z, 315
2023-02-21T02:50:00.083Z, 315
2023-02-21T02:52:00.054Z, 315
2023-02-21T02:54:00.057Z, 315
2023-02-21T02:56:00.054Z, 315
2023-02-21T02:58:00.038Z, 315
2023-02-21T03:00:00.074Z, 270
2023-02-21T03:02:00.102Z, 225
2023-02-21T03:04:00.099Z, 225
2023-02-21T03:06:00.045Z, 225
2023-02-21T03:08:00.067Z, 225
2023-02-21T03:10:00.062Z, 225
2023-02-21T03:12:00.041Z, 225
2023-02-21T03:14:00.340Z, 225
2023-02-21T03:16:00.168Z, 225
2023-02-21T03:18:00.108Z, 225
2023-02-21T03:20:00.122Z, 225
2023-02-21T03:22:00.113Z, 225
2023-02-21T03:24:01.109Z, 270
2023-02-21T03:26:00.114Z, 315
2023-02-21T03:28:00.483Z, 270
2023-02-21T03:30:00.136Z, 270
2023-02-21T03:32:00.241Z, 270
2023-02-21T03:34:00.109Z, 270
2023-02-21T03:36:00.125Z, 270
2023-02-21T03:38:00.126Z, 270
2023-02-21T03:40:00.161Z, 315
2023-02-21T03:42:00.121Z, 315
2023-02-21T03:44:00.073Z, 0
2023-02-21T03:46:00.048Z, 45
2023-02-21T03:48:00.044Z, 45
2023-02-21T03:50:00.032Z, 45
2023-02-21T03:52:00.064Z, 45
2023-02-21T03:54:00.052Z, 45
2023-02-21T03:56:00.048Z, 45
2023-02-21T03:58:00.051Z, 45
2023-02-21T04:00:00.050Z, 45
2023-02-21T04:02:00.184Z, 45
2023-02-21T04:04:00.057Z, 45
2023-02-21T04:06:00.060Z, 45
2023-02-21T04:08:00.049Z, 45
2023-02-21T04:10:00.085Z, 45
2023-02-21T04:12:00.047Z, 45
2023-02-21T04:14:00.126Z, 45
2023-02-21T04:16:00.173Z, 45
2023-02-21T04:18:00.123Z, 45
2023-02-21T04:20:00.144Z, 45
2023-02-21T04:22:00.125Z, 45
2023-02-21T04:24:00.137Z, 45
2023-02-21T04:26:00.120Z, 45
2023-02-21T04:28:00.143Z, 45
2023-02-21T04:30:00.153Z, 45
2023-02-21T04:32:00.243Z, 45
2023-02-21T04:34:11.295Z, 45
2023-02-21T04:36:00.102Z, 45
2023-02-21T04:38:00.115Z, 45
2023-02-21T04:40:00.126Z, 45
2023-02-21T04:42:00.133Z, 45
2023-02-21T04:44:00.093Z, 45
2023-02-21T04:46:00.229Z, 45
2023-02-21T04:48:00.099Z, 45
2023-02-21T04:50:00.115Z, 45
2023-02-21T04:52:00.102Z, 45
2023-02-21T04:54:00.069Z, 45
2023-02-21T04:56:00.056Z, 45
2023-02-21T04:58:00.053Z, 45
2023-02-21T05:00:00.075Z, 45
2023-02-21T05:02:02.690Z, 45
2023-02-21T05:04:00.249Z, 45
2023-02-21T05:06:00.088Z, 90
2023-02-21T05:08:00.053Z, 135
2023-02-21T05:10:00.052Z, 135
2023-02-21T05:12:00.069Z, 135
2023-02-21T05:14:00.093Z, 135
2023-02-21T05:16:00.104Z, 135
2023-02-21T05:18:00.110Z, 135
2023-02-21T05:20:00.133Z, 135
2023-02-21T05:22:00.109Z, 135
2023-02-21T05:24:00.111Z, 135
2023-02-21T05:26:00.124Z, 135
2023-02-21T05:28:00.132Z, 135
2023-02-21T05:30:00.120Z, 135
2023-02-21T05:32:00.257Z, 135
2023-02-21T05:34:00.115Z, 135
2023-02-21T05:36:00.102Z, 135
2023-02-21T05:38:00.127Z, 135
2023-02-21T05:40:00.125Z, 135
2023-02-21T05:42:00.112Z, 135
2023-02-21T05:44:00.104Z, 135
2023-02-21T05:46:00.164Z, 135
2023-02-21T05:48:00.073Z, 135
2023-02-21T05:50:00.093Z, 225
2023-02-21T05:52:00.218Z, 225
2023-02-21T05:54:00.122Z, 225
2023-02-21T05:56:00.082Z, 225
2023-02-21T05:58:00.046Z, 225
2023-02-21T06:00:00.074Z, 225
2023-02-21T06:02:00.174Z, 225
2023-02-21T06:04:00.045Z, 225
2023-02-21T06:06:00.067Z, 270
2023-02-21T06:08:00.053Z, 270
2023-02-21T06:10:00.068Z, 270
2023-02-21T06:12:00.047Z, 270
2023-02-21T06:14:00.120Z, 270
2023-02-21T06:16:00.268Z, 270
2023-02-21T06:18:00.128Z, 270
2023-02-21T06:20:00.145Z, 270
2023-02-21T06:22:00.112Z, 270
2023-02-21T06:24:00.112Z, 270
2023-02-21T06:26:00.125Z, 270
2023-02-21T06:28:00.119Z, 270
2023-02-21T06:30:00.129Z, 270
2023-02-21T06:32:00.204Z, 270
2023-02-21T06:34:00.119Z, 270
2023-02-21T06:36:00.120Z, 270
2023-02-21T06:38:00.101Z, 270
2023-02-21T06:40:00.131Z, 270
2023-02-21T06:42:00.169Z, 270
2023-02-21T06:44:00.113Z, 270
2023-02-21T06:46:00.129Z, 270
2023-02-21T06:48:00.078Z, 270
2023-02-21T06:50:00.074Z, 270
2023-02-21T06:52:00.104Z, 270
2023-02-21T06:54:00.093Z, 270
2023-02-21T06:56:00.054Z, 270
2023-02-21T06:58:00.089Z, 270
2023-02-21T07:00:00.227Z, 270
2023-02-21T07:02:00.228Z, 270
2023-02-21T07:04:00.087Z, 270
2023-02-21T07:06:00.060Z, 270
2023-02-21T07:08:00.067Z, 270
2023-02-21T07:10:00.069Z, 270
2023-02-21T07:12:00.044Z, 270
2023-02-21T07:14:00.127Z, 270
2023-02-21T07:16:00.263Z, 270
2023-02-21T07:18:00.333Z, 270
2023-02-21T07:20:00.151Z, 270
2023-02-21T07:22:00.167Z, 270
2023-02-21T07:24:00.107Z, 270
2023-02-21T07:26:00.130Z, 45
2023-02-21T07:28:00.137Z, 45
2023-02-21T07:30:00.157Z, 45
2023-02-21T07:32:00.152Z, 45
2023-02-21T07:34:00.153Z, 45
2023-02-21T07:36:00.127Z, 45
2023-02-21T07:38:00.141Z, 45
2023-02-21T07:40:00.120Z, 45
2023-02-21T07:42:00.116Z, 45
2023-02-21T07:44:00.098Z, 45
2023-02-21T07:46:00.236Z, 45
2023-02-21T07:48:00.114Z, 45
2023-02-21T07:50:00.132Z, 45
2023-02-21T07:52:00.063Z, 45
2023-02-21T07:54:00.100Z, 45
2023-02-21T07:56:00.066Z, 45
2023-02-21T07:58:00.088Z, 45
2023-02-21T08:00:00.057Z, 45
2023-02-21T08:02:00.156Z, 45
2023-02-21T08:04:00.080Z, 45
2023-02-21T08:06:00.103Z, 45
2023-02-21T08:08:00.095Z, 45
2023-02-21T08:10:00.054Z, 45
2023-02-21T08:12:00.044Z, 45
2023-02-21T08:14:00.119Z, 45
2023-02-21T08:16:00.269Z, 45
2023-02-21T08:18:00.089Z, 45
2023-02-21T08:20:00.115Z, 45
2023-02-21T08:22:00.101Z, 45
2023-02-21T08:24:00.099Z, 45
2023-02-21T08:26:00.098Z, 45
2023-02-21T08:28:00.138Z, 45
2023-02-21T08:30:00.109Z, 45
2023-02-21T08:32:00.140Z, 45
2023-02-21T08:34:00.108Z, 45
2023-02-21T08:36:00.133Z, 45
2023-02-21T08:38:00.165Z, 45
2023-02-21T08:40:00.119Z, 45
2023-02-21T08:42:00.090Z, 45
2023-02-21T08:44:00.064Z, 45
2023-02-21T08:46:00.068Z, 45
2023-02-21T08:48:00.065Z, 45
2023-02-21T08:50:00.054Z, 45
2023-02-21T08:52:00.117Z, 45
2023-02-21T08:54:00.065Z, 45
2023-02-21T08:56:00.058Z, 45
2023-02-21T08:58:00.117Z, 45
2023-02-21T09:00:00.065Z, 45
2023-02-21T09:02:00.144Z, 45
2023-02-21T09:04:00.068Z, 45
2023-02-21T09:06:00.081Z, 45
2023-02-21T09:08:00.077Z, 45
2023-02-21T09:10:01.223Z, 45
2023-02-21T09:12:00.044Z, 45
2023-02-21T09:14:00.139Z, 45
2023-02-21T09:16:00.222Z, 45
2023-02-21T09:18:00.108Z, 45
2023-02-21T09:20:00.118Z, 45
2023-02-21T09:22:01.679Z, 45
2023-02-21T09:24:00.119Z, 45
2023-02-21T09:26:00.110Z, 90
2023-02-21T09:28:00.155Z, 90
2023-02-21T09:30:00.148Z, 90
2023-02-21T09:32:00.215Z, 90
2023-02-21T09:34:00.118Z, 45
2023-02-21T09:36:00.115Z, 45
2023-02-21T09:38:00.471Z, 45
2023-02-21T09:40:00.230Z, 45
2023-02-21T09:42:00.142Z, 45
2023-02-21T09:44:00.488Z, 315
2023-02-21T09:46:00.091Z, 45
2023-02-21T09:48:00.085Z, 45
2023-02-21T09:50:00.038Z, 45
2023-02-21T09:52:00.045Z, 45
2023-02-21T09:54:00.059Z, 45
2023-02-21T09:56:00.093Z, 90
2023-02-21T09:58:00.073Z, 270
2023-02-21T10:00:00.059Z, 0
2023-02-21T10:02:00.080Z, 0
2023-02-21T10:04:00.047Z, 315
2023-02-21T10:06:00.064Z, 315
2023-02-21T10:08:00.038Z, 315
2023-02-21T10:10:00.036Z, 270
2023-02-21T10:12:00.042Z, 270
2023-02-21T10:14:00.110Z, 45
2023-02-21T10:16:00.098Z, 45
2023-02-21T10:18:00.100Z, 315
2023-02-21T10:20:00.108Z, 225
2023-02-21T10:22:00.099Z, 315
2023-02-21T10:24:00.095Z, 315
2023-02-21T10:26:00.110Z, 0
2023-02-21T10:28:00.125Z, 270
2023-02-21T10:30:00.147Z, 315
2023-02-21T10:32:00.211Z, 0
2023-02-21T10:34:00.158Z, 225
2023-02-21T10:36:00.118Z, 270
2023-02-21T10:38:00.123Z, 270
2023-02-21T10:40:00.141Z, 45
2023-02-21T10:42:00.119Z, 45
2023-02-21T10:44:00.101Z, 45
2023-02-21T10:46:00.107Z, 45
2023-02-21T10:48:00.044Z, 45
2023-02-21T10:50:00.041Z, 45
2023-02-21T10:52:00.090Z, 90
2023-02-21T10:54:00.080Z, 45
2023-02-21T10:56:00.047Z, 45
2023-02-21T10:58:00.155Z, 45
2023-02-21T11:00:00.080Z, 90
2023-02-21T11:02:00.030Z, 45
2023-02-21T11:04:00.033Z, 270
2023-02-21T11:06:00.103Z, 270
2023-02-21T11:08:00.056Z, 45
2023-02-21T11:10:00.067Z, 45
2023-02-21T11:12:00.153Z, 90
2023-02-21T11:14:00.116Z, 0
2023-02-21T11:16:00.240Z, 0
2023-02-21T11:18:00.099Z, 0
2023-02-21T11:20:00.183Z, 315
2023-02-21T11:22:00.111Z, 270
2023-02-21T11:24:00.120Z, 270
2023-02-21T11:26:00.106Z, 270
2023-02-21T11:28:00.124Z, 270
2023-02-21T11:30:00.132Z, 270
2023-02-21T11:32:00.164Z, 45
2023-02-21T11:34:00.111Z, 45
2023-02-21T11:36:00.097Z, 45
2023-02-21T11:38:00.127Z, 45
2023-02-21T11:40:00.136Z, 90
2023-02-21T11:42:00.098Z, 270
2023-02-21T11:44:00.094Z, 135
2023-02-21T11:46:00.118Z, 135
2023-02-21T11:48:00.095Z, 135
2023-02-21T11:50:00.135Z, 45
2023-02-21T11:52:00.121Z, 0
2023-02-21T11:54:00.078Z, 90
2023-02-21T11:56:00.052Z, 0
2023-02-21T11:58:00.094Z, 45
2023-02-21T12:00:00.096Z, 90
2023-02-21T12:02:00.048Z, 90
2023-02-21T12:04:00.113Z, 315
2023-02-21T12:06:00.176Z, 90
2023-02-21T12:08:00.046Z, 135
2023-02-21T12:10:00.085Z, 90
2023-02-21T12:12:02.217Z, 90
2023-02-21T12:14:00.106Z, 90
2023-02-21T12:16:00.156Z, 45
2023-02-21T12:18:00.423Z, 45
2023-02-21T12:20:00.161Z, 90
2023-02-21T12:22:00.145Z, 45
2023-02-21T12:24:00.112Z, 45
2023-02-21T12:26:00.116Z, 45
2023-02-21T12:28:00.107Z, 270
2023-02-21T12:30:00.157Z, 90
2023-02-21T12:32:00.308Z, 90
2023-02-21T12:34:00.165Z, 45
2023-02-21T12:36:00.290Z, 45
2023-02-21T12:38:00.123Z, 45
2023-02-21T12:40:00.152Z, 135
2023-02-21T12:42:00.141Z, 135
2023-02-21T12:44:00.058Z, 90
2023-02-21T12:46:00.060Z, 90
2023-02-21T12:48:00.108Z, 90
2023-02-21T12:50:00.047Z, 90
2023-02-21T12:52:00.061Z, 45
2023-02-21T12:54:00.063Z, 315
2023-02-21T12:56:00.047Z, 270
2023-02-21T12:58:00.080Z, 270
2023-02-21T13:00:00.102Z, 45
2023-02-21T13:02:00.103Z, 90
2023-02-21T13:04:00.082Z, 90
2023-02-21T13:06:00.056Z, 0
2023-02-21T13:08:00.070Z, 45
2023-02-21T13:10:00.050Z, 45
2023-02-21T13:12:00.053Z, 45
2023-02-21T13:14:00.145Z, 45
2023-02-21T13:16:00.209Z, 90
2023-02-21T13:18:00.135Z, 90
2023-02-21T13:20:00.189Z, 90
2023-02-21T13:22:00.116Z, 90
2023-02-21T13:24:00.165Z, 90
2023-02-21T13:26:00.153Z, 90
2023-02-21T13:28:00.132Z, 90
2023-02-21T13:30:00.153Z, 270
2023-02-21T13:32:00.213Z, 270
2023-02-21T13:34:00.116Z, 45
2023-02-21T13:36:00.123Z, 45
2023-02-21T13:38:00.117Z, 90
2023-02-21T13:40:00.137Z, 45
2023-02-21T13:42:00.133Z, 45
2023-02-21T13:44:00.090Z, 45
2023-02-21T13:46:00.126Z, 45
2023-02-21T13:48:00.204Z, 45
2023-02-21T13:50:00.053Z, 45
2023-02-21T13:52:00.050Z, 45
2023-02-21T13:54:00.052Z, 45
2023-02-21T13:56:00.078Z, 45
2023-02-21T13:58:00.497Z, 45
2023-02-21T14:00:00.098Z, 0
2023-02-21T14:02:00.062Z, 45
2023-02-21T14:04:00.236Z, 90
2023-02-21T14:06:00.056Z, 225
2023-02-21T14:08:00.114Z, 180
2023-02-21T14:10:00.056Z, 45
2023-02-21T14:12:00.041Z, 270
2023-02-21T14:14:00.108Z, 270
2023-02-21T14:16:00.210Z, 180
2023-02-21T14:18:00.100Z, 180
2023-02-21T14:20:00.137Z, 180
2023-02-21T14:22:00.114Z, 180
2023-02-21T14:24:00.119Z, 180
2023-02-21T14:26:00.392Z, 135
2023-02-21T14:28:00.131Z, 45
2023-02-21T14:30:00.113Z, 45
2023-02-21T14:32:00.246Z, 315
2023-02-21T14:34:00.106Z, 45
2023-02-21T14:36:00.104Z, 270
2023-02-21T14:38:00.115Z, 315
2023-02-21T14:40:00.124Z, 315
2023-02-21T14:42:00.112Z, 45
2023-02-21T14:44:00.096Z, 270
2023-02-21T14:46:00.248Z, 270
2023-02-21T14:48:00.112Z, 270
2023-02-21T14:50:00.125Z, 45
2023-02-21T14:52:00.266Z, 45
2023-02-21T14:54:00.314Z, 90
2023-02-21T14:56:00.200Z, 45
2023-02-21T14:58:00.106Z, 45
2023-02-21T15:00:00.084Z, 45
2023-02-21T15:02:00.108Z, 315
2023-02-21T15:04:00.106Z, 90
2023-02-21T15:06:02.807Z, 135
2023-02-21T15:08:00.044Z, 90
2023-02-21T15:10:00.045Z, 90
2023-02-21T15:12:00.102Z, 90
2023-02-21T15:14:00.097Z, 90
2023-02-21T15:16:00.116Z, 45
2023-02-21T15:18:00.112Z, 90
2023-02-21T15:20:00.124Z, 90
2023-02-21T15:22:00.127Z, 90
2023-02-21T15:24:00.108Z, 90
2023-02-21T15:26:00.137Z, 135
2023-02-21T15:28:00.151Z, 135
2023-02-21T15:30:00.147Z, 90
2023-02-21T15:32:00.239Z, 90
2023-02-21T15:34:00.130Z, 225
2023-02-21T15:36:00.117Z, 135
2023-02-21T15:38:00.139Z, 135
2023-02-21T15:40:00.123Z, 135
2023-02-21T15:42:00.246Z, 135
2023-02-21T15:44:00.055Z, 90
2023-02-21T15:46:00.176Z, 90
2023-02-21T15:48:00.116Z, 90
2023-02-21T15:50:00.062Z, 90
2023-02-21T15:52:00.037Z, 90
2023-02-21T15:54:00.049Z, 90
2023-02-21T15:56:00.077Z, 90
2023-02-21T15:58:00.058Z, 135
2023-02-21T16:00:00.107Z, 90
2023-02-21T16:02:00.044Z, 135
2023-02-21T16:04:00.039Z, 225
2023-02-21T16:06:00.067Z, 180
2023-02-21T16:08:00.036Z, 270
2023-02-21T16:10:00.232Z, 0
2023-02-21T16:12:00.091Z, 225
2023-02-21T16:14:00.119Z, 135
2023-02-21T16:16:00.187Z, 90
2023-02-21T16:18:00.092Z, 315
2023-02-21T16:20:00.226Z, 270
2023-02-21T16:22:00.150Z, 270
2023-02-21T16:24:00.090Z, 90
2023-02-21T16:26:00.163Z, 180
2023-02-21T16:28:00.113Z, 135
2023-02-21T16:30:01.037Z, 225
2023-02-21T16:32:00.268Z, 225
2023-02-21T16:34:00.103Z, 180
2023-02-21T16:36:02.949Z, 135
2023-02-21T16:38:00.184Z, 135
2023-02-21T16:40:00.138Z, 135
2023-02-21T16:42:00.507Z, 135
2023-02-21T16:44:00.129Z, 135
2023-02-21T16:46:00.147Z, 180
2023-02-21T16:48:00.058Z, 180
2023-02-21T16:50:00.039Z, 180
2023-02-21T16:52:00.059Z, 180
2023-02-21T16:54:00.054Z, 180
2023-02-21T16:56:00.049Z, 135
2023-02-21T16:58:00.165Z, 135
2023-02-21T17:00:00.057Z, 135
2023-02-21T17:02:00.102Z, 135
2023-02-21T17:04:00.033Z, 135
2023-02-21T17:06:00.053Z, 135
2023-02-21T17:08:00.079Z, 135
2023-02-21T17:10:00.074Z, 135
2023-02-21T17:12:00.032Z, 135
2023-02-21T17:14:00.112Z, 135
2023-02-21T17:16:00.200Z, 180
2023-02-21T17:18:00.128Z, 180
2023-02-21T17:20:00.129Z, 180
2023-02-21T17:22:00.114Z, 180
2023-02-21T17:24:00.119Z, 180
2023-02-21T17:26:00.126Z, 180
2023-02-21T17:28:00.125Z, 135
2023-02-21T17:30:00.223Z, 135
2023-02-21T17:32:00.108Z, 135
2023-02-21T17:34:00.381Z, 135
2023-02-21T17:36:00.099Z, 135
2023-02-21T17:38:00.113Z, 135
2023-02-21T17:40:00.331Z, 135
2023-02-21T17:42:00.136Z, 135
2023-02-21T17:44:00.069Z, 135
2023-02-21T17:46:00.094Z, 135
2023-02-21T17:48:00.066Z, 135
2023-02-21T17:50:02.770Z, 135
2023-02-21T17:52:00.060Z, 135
2023-02-21T17:54:00.057Z, 135
2023-02-21T17:56:00.056Z, 135
2023-02-21T17:58:00.048Z, 135
2023-02-21T18:00:00.049Z, 135
2023-02-21T18:02:00.113Z, 135
2023-02-21T18:04:00.052Z, 135
2023-02-21T18:06:00.069Z, 135
2023-02-21T18:08:00.060Z, 135
2023-02-21T18:10:10.047Z, 135
2023-02-21T18:12:00.027Z, 135
2023-02-21T18:14:00.113Z, 135
2023-02-21T18:16:00.147Z, 135
2023-02-21T18:18:00.092Z, 135
2023-02-21T18:20:00.139Z, 135
2023-02-21T18:22:00.127Z, 135
2023-02-21T18:24:00.112Z, 135
2023-02-21T18:26:00.124Z, 135
2023-02-21T18:28:00.129Z, 135
2023-02-21T18:30:00.149Z, 135
2023-02-21T18:32:00.211Z, 135
2023-02-21T18:34:00.131Z, 135
2023-02-21T18:36:00.166Z, 135
2023-02-21T18:38:00.133Z, 135
2023-02-21T18:40:00.157Z, 135
2023-02-21T18:42:00.157Z, 135
2023-02-21T18:44:00.148Z, 135
2023-02-21T18:46:00.126Z, 135
2023-02-21T18:48:00.129Z, 135
2023-02-21T18:50:00.165Z, 135
2023-02-21T18:52:00.123Z, 135
2023-02-21T18:54:00.133Z, 135
2023-02-21T18:56:00.138Z, 135
2023-02-21T18:58:00.149Z, 135
2023-02-21T19:00:00.151Z, 135
2023-02-21T19:02:00.167Z, 135
2023-02-21T19:04:00.260Z, 135
2023-02-21T19:06:00.129Z, 135
2023-02-21T19:08:00.170Z, 135
2023-02-21T19:10:00.167Z, 135
2023-02-21T19:12:00.222Z, 135
2023-02-21T19:14:00.265Z, 135
2023-02-21T19:16:00.205Z, 135
2023-02-21T19:18:00.179Z, 135
2023-02-21T19:20:00.048Z, 135
2023-02-21T19:22:00.062Z, 135
2023-02-21T19:24:00.360Z, 135
2023-02-21T19:26:00.099Z, 135
2023-02-21T19:28:00.069Z, 135
2023-02-21T19:30:00.054Z, 135
2023-02-21T19:32:00.198Z, 135
2023-02-21T19:34:00.045Z, 135
2023-02-21T19:36:00.162Z, 135
2023-02-21T19:38:00.050Z, 135
2023-02-21T19:40:00.066Z, 135
2023-02-21T19:42:00.057Z, 135
2023-02-21T19:44:00.156Z, 135
2023-02-21T19:46:00.264Z, 135
2023-02-21T19:48:00.116Z, 135
2023-02-21T19:50:00.125Z, 135
2023-02-21T19:52:00.122Z, 135
2023-02-21T19:54:00.120Z, 135
2023-02-21T19:56:00.131Z, 135
2023-02-21T19:58:00.122Z, 135
2023-02-21T20:00:00.183Z, 135
2023-02-21T20:02:00.115Z, 135
2023-02-21T20:04:00.176Z, 135
2023-02-21T20:06:00.177Z, 135
2023-02-21T20:08:00.156Z, 135
2023-02-21T20:10:00.197Z, 135
2023-02-21T20:12:00.150Z, 135
2023-02-21T20:14:00.460Z, 135
2023-02-21T20:16:00.098Z, 135
2023-02-21T20:18:00.060Z, 135
2023-02-21T20:20:00.039Z, 135
2023-02-21T20:22:00.082Z, 135
2023-02-21T20:24:00.074Z, 135
2023-02-21T20:26:00.082Z, 135
2023-02-21T20:28:00.062Z, 135
2023-02-21T20:30:00.059Z, 135
2023-02-21T20:32:00.195Z, 135
2023-02-21T20:34:00.040Z, 135
2023-02-21T20:36:00.043Z, 135
2023-02-21T20:38:00.047Z, 135
2023-02-21T20:40:00.054Z, 135
2023-02-21T20:42:00.064Z, 135
2023-02-21T20:44:00.103Z, 135
2023-02-21T20:46:00.214Z, 135
2023-02-21T20:48:00.115Z, 135
2023-02-21T20:50:00.158Z, 135
2023-02-21T20:52:00.143Z, 135
2023-02-21T20:54:00.128Z, 135
2023-02-21T20:56:00.118Z, 135
2023-02-21T20:58:00.137Z, 135
2023-02-21T21:00:00.154Z, 135
2023-02-21T21:02:00.122Z, 135
2023-02-21T21:04:00.181Z, 135
2023-02-21T21:06:00.177Z, 135
2023-02-21T21:08:00.134Z, 135
2023-02-21T21:10:00.153Z, 135
2023-02-21T21:12:00.108Z, 135
2023-02-21T21:14:00.102Z, 225
2023-02-21T21:16:00.260Z, 225
2023-02-21T21:18:00.086Z, 225
2023-02-21T21:20:00.063Z, 225
2023-02-21T21:22:00.057Z, 225
2023-02-21T21:24:00.073Z, 225
2023-02-21T21:26:00.054Z, 135
2023-02-21T21:28:00.120Z, 135
2023-02-21T21:30:00.105Z, 135
2023-02-21T21:32:00.091Z, 135
2023-02-21T21:34:00.056Z, 135
2023-02-21T21:36:00.074Z, 135
2023-02-21T21:38:00.056Z, 135
2023-02-21T21:40:00.068Z, 135
2023-02-21T21:42:00.150Z, 135
2023-02-21T21:44:00.114Z, 135
2023-02-21T21:46:00.176Z, 135
2023-02-21T21:48:00.136Z, 135
2023-02-21T21:50:00.122Z, 135
2023-02-21T21:52:00.148Z, 135
2023-02-21T21:54:00.132Z, 135
2023-02-21T21:56:00.462Z, 135
2023-02-21T21:58:00.125Z, 135
2023-02-21T22:00:00.123Z, 135
2023-02-21T22:02:00.161Z, 135
2023-02-21T22:04:00.125Z, 135
2023-02-21T22:06:00.117Z, 135
2023-02-21T22:08:00.112Z, 135
2023-02-21T22:10:00.128Z, 135
2023-02-21T22:12:00.117Z, 135
2023-02-21T22:14:00.077Z, 135
2023-02-21T22:16:00.228Z, 135
2023-02-21T22:18:00.067Z, 135
2023-02-21T22:20:00.072Z, 135
2023-02-21T22:22:00.072Z, 135
2023-02-21T22:24:00.055Z, 135
2023-02-21T22:26:00.177Z, 135
2023-02-21T22:28:00.062Z, 135
2023-02-21T22:30:00.057Z, 135
2023-02-21T22:32:00.118Z, 135
2023-02-21T22:34:00.054Z, 135
2023-02-21T22:36:00.054Z, 135
2023-02-21T22:38:00.057Z, 135
2023-02-21T22:40:00.077Z, 135
2023-02-21T22:42:00.196Z, 135
2023-02-21T22:44:00.100Z, 135
2023-02-21T22:46:00.105Z, 135
2023-02-21T22:48:00.100Z, 135
2023-02-21T22:50:00.120Z, 135
2023-02-21T22:52:00.115Z, 135
2023-02-21T22:54:00.123Z, 135
2023-02-21T22:56:00.117Z, 135
2023-02-21T22:58:00.115Z, 135
2023-02-21T23:00:00.169Z, 135
2023-02-21T23:02:00.128Z, 135
2023-02-21T23:04:00.108Z, 135
2023-02-21T23:06:00.111Z, 135
2023-02-21T23:08:00.165Z, 135
2023-02-21T23:10:00.153Z, 135
2023-02-21T23:12:00.196Z, 135
2023-02-21T23:14:00.053Z, 135
2023-02-21T23:16:00.124Z, 135
2023-02-21T23:18:00.040Z, 135
2023-02-21T23:20:00.526Z, 135
2023-02-21T23:22:00.108Z, 135
2023-02-21T23:24:00.095Z, 135
2023-02-21T23:26:00.072Z, 135
2023-02-21T23:28:00.047Z, 135
2023-02-21T23:30:00.893Z, 135
2023-02-21T23:32:00.128Z, 135
2023-02-21T23:34:00.015Z, 135
2023-02-21T23:36:00.036Z, 135
2023-02-21T23:38:00.101Z, 135
2023-02-21T23:40:00.045Z, 135
2023-02-21T23:42:00.044Z, 135
2023-02-21T23:44:00.097Z, 135
2023-02-21T23:46:00.140Z, 135
2023-02-21T23:48:00.124Z, 135
2023-02-21T23:50:00.137Z, 135
2023-02-21T23:52:00.112Z, 135
2023-02-21T23:54:00.136Z, 135
2023-02-21T23:56:00.147Z, 135
2023-02-21T23:58:00.155Z, 135
